sensor_id;sensor_type;location;lat;lon;timestamp;pressure;altitude;pressure_sealevel;temperature;humidity
32237;BME280;18726;44.732;10.550;2023-02-23T00:01:56;101066.19;;;12.42;100.00
32237;BME280;18726;44.732;10.550;2023-02-23T00:05:00;101062.63;;;12.54;100.00
32237;BME280;18726;44.732;10.550;2023-02-23T00:08:04;101060.53;;;12.63;100.00
32237;BME280;18726;44.732;10.550;2023-02-23T00:11:10;101060.44;;;12.75;100.00
32237;BME280;18726;44.732;10.550;2023-02-23T00:14:14;101066.06;;;12.82;100.00
32237;BME280;18726;44.732;10.550;2023-02-23T00:17:18;101059.19;;;12.57;100.00
32237;BME280;18726;44.732;10.550;2023-02-23T00:20:24;101061.69;;;12.62;100.00
32237;BME280;18726;44.732;10.550;2023-02-23T00:23:29;101067.31;;;12.69;100.00
32237;BME280;18726;44.732;10.550;2023-02-23T00:26:34;101058.94;;;12.77;100.00
32237;BME280;18726;44.732;10.550;2023-02-23T00:29:39;101055.69;;;12.72;100.00
32237;BME280;18726;44.732;10.550;2023-02-23T00:32:44;101064.38;;;12.46;100.00
32237;BME280;18726;44.732;10.550;2023-02-23T00:35:48;101063.75;;;12.52;100.00
32237;BME280;18726;44.732;10.550;2023-02-23T00:38:53;101064.41;;;12.62;100.00
32237;BME280;18726;44.732;10.550;2023-02-23T00:41:57;101062.66;;;12.69;100.00
32237;BME280;18726;44.732;10.550;2023-02-23T00:45:06;101064.25;;;12.70;100.00
32237;BME280;18726;44.732;10.550;2023-02-23T00:48:14;101067.56;;;12.79;100.00
32237;BME280;18726;44.732;10.550;2023-02-23T00:51:17;101066.94;;;12.86;100.00
32237;BME280;18726;44.732;10.550;2023-02-23T00:54:21;101061.69;;;12.93;100.00
32237;BME280;18726;44.732;10.550;2023-02-23T00:57:25;101052.34;;;12.94;100.00
32237;BME280;18726;44.732;10.550;2023-02-23T01:00:28;101059.13;;;12.84;100.00
32237;BME280;18726;44.732;10.550;2023-02-23T01:03:33;101051.22;;;12.79;100.00
32237;BME280;18726;44.732;10.550;2023-02-23T01:06:38;101045.22;;;12.90;100.00
32237;BME280;18726;44.732;10.550;2023-02-23T01:09:43;101037.22;;;12.97;100.00
32237;BME280;18726;44.732;10.550;2023-02-23T01:12:49;101042.38;;;13.02;100.00
32237;BME280;18726;44.732;10.550;2023-02-23T01:15:53;101042.38;;;13.02;100.00
32237;BME280;18726;44.732;10.550;2023-02-23T01:19:00;101038.28;;;12.92;100.00
32237;BME280;18726;44.732;10.550;2023-02-23T01:22:03;101040.47;;;12.87;100.00
32237;BME280;18726;44.732;10.550;2023-02-23T01:25:08;101040.66;;;12.94;100.00
32237;BME280;18726;44.732;10.550;2023-02-23T01:28:12;101044.53;;;12.93;100.00
32237;BME280;18726;44.732;10.550;2023-02-23T01:31:17;101034.16;;;12.82;100.00
32237;BME280;18726;44.732;10.550;2023-02-23T01:34:20;101041.09;;;12.80;100.00
32237;BME280;18726;44.732;10.550;2023-02-23T01:37:24;101039.16;;;12.80;100.00
32237;BME280;18726;44.732;10.550;2023-02-23T01:40:28;101032.47;;;12.78;100.00
32237;BME280;18726;44.732;10.550;2023-02-23T01:43:32;101045.16;;;12.70;100.00
32237;BME280;18726;44.732;10.550;2023-02-23T01:46:38;101033.28;;;12.63;100.00
32237;BME280;18726;44.732;10.550;2023-02-23T01:49:42;101032.03;;;12.60;100.00
32237;BME280;18726;44.732;10.550;2023-02-23T01:52:49;101022.78;;;12.49;100.00
32237;BME280;18726;44.732;10.550;2023-02-23T01:55:57;101024.63;;;12.45;100.00
32237;BME280;18726;44.732;10.550;2023-02-23T01:59:05;101018.41;;;12.44;100.00
32237;BME280;18726;44.732;10.550;2023-02-23T02:02:12;101015.84;;;12.36;100.00
32237;BME280;18726;44.732;10.550;2023-02-23T02:05:17;101021.44;;;12.11;100.00
32237;BME280;18726;44.732;10.550;2023-02-23T02:08:28;101014.31;;;12.07;100.00
32237;BME280;18726;44.732;10.550;2023-02-23T02:11:34;101014.50;;;11.86;100.00
32237;BME280;18726;44.732;10.550;2023-02-23T02:14:41;101014.38;;;11.55;100.00
32237;BME280;18726;44.732;10.550;2023-02-23T02:18:13;101012.63;;;11.22;100.00
32237;BME280;18726;44.732;10.550;2023-02-23T02:21:46;101009.63;;;11.52;100.00
32237;BME280;18726;44.732;10.550;2023-02-23T02:35:34;100997.75;;;11.72;100.00
32237;BME280;18726;44.732;10.550;2023-02-23T02:43:06;100997.50;;;12.33;100.00
32237;BME280;18726;44.732;10.550;2023-02-23T02:46:17;101001.25;;;12.44;100.00
32237;BME280;18726;44.732;10.550;2023-02-23T02:49:26;101004.78;;;12.29;100.00
32237;BME280;18726;44.732;10.550;2023-02-23T02:52:36;101000.19;;;11.89;100.00
32237;BME280;18726;44.732;10.550;2023-02-23T02:55:43;100993.25;;;11.64;100.00
32237;BME280;18726;44.732;10.550;2023-02-23T02:58:52;100993.13;;;11.60;100.00
32237;BME280;18726;44.732;10.550;2023-02-23T03:01:56;100989.56;;;11.84;100.00
32237;BME280;18726;44.732;10.550;2023-02-23T03:05:22;100994.63;;;11.98;100.00
32237;BME280;18726;44.732;10.550;2023-02-23T03:08:58;100992.56;;;11.67;100.00
32237;BME280;18726;44.732;10.550;2023-02-23T03:12:39;100999.06;;;11.90;100.00
32237;BME280;18726;44.732;10.550;2023-02-23T03:16:22;100995.91;;;11.88;100.00
32237;BME280;18726;44.732;10.550;2023-02-23T03:34:53;101002.31;;;11.56;100.00
32237;BME280;18726;44.732;10.550;2023-02-23T03:38:39;101002.88;;;11.61;100.00
32237;BME280;18726;44.732;10.550;2023-02-23T03:42:08;101001.97;;;11.81;100.00
32237;BME280;18726;44.732;10.550;2023-02-23T03:45:32;101006.09;;;11.91;100.00
32237;BME280;18726;44.732;10.550;2023-02-23T03:48:56;101004.91;;;11.76;100.00
32237;BME280;18726;44.732;10.550;2023-02-23T03:52:25;101012.06;;;11.81;100.00
32237;BME280;18726;44.732;10.550;2023-02-23T03:55:54;101012.22;;;11.88;100.00
32237;BME280;18726;44.732;10.550;2023-02-23T03:59:20;101015.69;;;11.61;100.00
32237;BME280;18726;44.732;10.550;2023-02-23T04:02:48;101007.53;;;11.61;100.00
32237;BME280;18726;44.732;10.550;2023-02-23T04:06:12;101015.06;;;11.52;100.00
32237;BME280;18726;44.732;10.550;2023-02-23T04:09:35;101006.94;;;11.67;100.00
32237;BME280;18726;44.732;10.550;2023-02-23T04:16:17;101014.53;;;11.34;100.00
32237;BME280;18726;44.732;10.550;2023-02-23T04:19:20;101016.22;;;11.38;100.00
32237;BME280;18726;44.732;10.550;2023-02-23T04:22:24;101010.94;;;11.58;100.00
32237;BME280;18726;44.732;10.550;2023-02-23T04:25:29;101009.91;;;11.62;100.00
32237;BME280;18726;44.732;10.550;2023-02-23T04:28:32;101009.06;;;11.46;100.00
32237;BME280;18726;44.732;10.550;2023-02-23T04:31:36;101006.84;;;11.64;100.00
32237;BME280;18726;44.732;10.550;2023-02-23T04:34:40;101012.28;;;11.64;100.00
32237;BME280;18726;44.732;10.550;2023-02-23T04:37:44;101007.06;;;11.71;100.00
32237;BME280;18726;44.732;10.550;2023-02-23T04:40:48;101007.94;;;11.47;100.00
32237;BME280;18726;44.732;10.550;2023-02-23T04:43:52;101013.31;;;11.19;100.00
32237;BME280;18726;44.732;10.550;2023-02-23T04:46:57;101006.09;;;10.87;100.00
32237;BME280;18726;44.732;10.550;2023-02-23T04:50:01;101001.91;;;10.65;100.00
32237;BME280;18726;44.732;10.550;2023-02-23T04:53:05;101009.31;;;10.43;100.00
32237;BME280;18726;44.732;10.550;2023-02-23T04:56:09;101007.38;;;10.32;100.00
32237;BME280;18726;44.732;10.550;2023-02-23T04:59:13;101002.63;;;10.29;100.00
32237;BME280;18726;44.732;10.550;2023-02-23T05:02:16;101002.75;;;10.32;100.00
32237;BME280;18726;44.732;10.550;2023-02-23T05:05:20;101009.53;;;10.26;100.00
32237;BME280;18726;44.732;10.550;2023-02-23T05:08:24;101004.22;;;10.30;100.00
32237;BME280;18726;44.732;10.550;2023-02-23T05:11:28;101000.72;;;10.41;100.00
32237;BME280;18726;44.732;10.550;2023-02-23T05:14:32;101002.09;;;10.35;100.00
32237;BME280;18726;44.732;10.550;2023-02-23T05:17:38;101007.38;;;10.32;100.00
32237;BME280;18726;44.732;10.550;2023-02-23T05:20:43;101009.66;;;10.30;100.00
32237;BME280;18726;44.732;10.550;2023-02-23T05:23:47;100998.78;;;10.30;100.00
32237;BME280;18726;44.732;10.550;2023-02-23T05:26:51;100997.88;;;10.26;100.00
32237;BME280;18726;44.732;10.550;2023-02-23T05:29:56;101001.06;;;10.52;100.00
32237;BME280;18726;44.732;10.550;2023-02-23T05:32:59;100996.09;;;11.15;100.00
32237;BME280;18726;44.732;10.550;2023-02-23T05:36:04;100991.28;;;11.36;100.00
32237;BME280;18726;44.732;10.550;2023-02-23T05:39:08;100990.53;;;11.64;100.00
32237;BME280;18726;44.732;10.550;2023-02-23T05:42:11;100992.66;;;11.82;100.00
32237;BME280;18726;44.732;10.550;2023-02-23T05:45:15;100998.00;;;11.79;100.00
32237;BME280;18726;44.732;10.550;2023-02-23T05:48:19;100997.00;;;11.59;100.00
32237;BME280;18726;44.732;10.550;2023-02-23T05:51:22;101001.63;;;11.71;100.00
32237;BME280;18726;44.732;10.550;2023-02-23T05:54:26;101002.75;;;11.70;100.00
32237;BME280;18726;44.732;10.550;2023-02-23T05:57:30;101002.31;;;11.68;100.00
32237;BME280;18726;44.732;10.550;2023-02-23T06:00:34;101010.94;;;11.58;100.00
32237;BME280;18726;44.732;10.550;2023-02-23T06:03:37;101007.13;;;11.46;100.00
32237;BME280;18726;44.732;10.550;2023-02-23T06:06:41;101001.25;;;11.32;100.00
32237;BME280;18726;44.732;10.550;2023-02-23T06:09:45;101011.91;;;11.37;100.00
32237;BME280;18726;44.732;10.550;2023-02-23T06:12:49;101011.91;;;11.37;100.00
32237;BME280;18726;44.732;10.550;2023-02-23T06:15:53;101009.78;;;11.19;100.00
32237;BME280;18726;44.732;10.550;2023-02-23T06:18:56;101010.81;;;11.14;100.00
32237;BME280;18726;44.732;10.550;2023-02-23T06:22:00;101018.31;;;11.57;100.00
32237;BME280;18726;44.732;10.550;2023-02-23T06:25:04;101020.03;;;11.90;100.00
32237;BME280;18726;44.732;10.550;2023-02-23T06:28:11;101019.47;;;11.96;100.00
32237;BME280;18726;44.732;10.550;2023-02-23T06:31:15;101026.50;;;11.97;100.00
32237;BME280;18726;44.732;10.550;2023-02-23T06:34:18;101028.06;;;11.98;100.00
32237;BME280;18726;44.732;10.550;2023-02-23T06:37:22;101026.91;;;11.83;100.00
32237;BME280;18726;44.732;10.550;2023-02-23T06:40:26;101035.91;;;12.00;100.00
32237;BME280;18726;44.732;10.550;2023-02-23T06:43:31;101036.19;;;12.10;100.00
32237;BME280;18726;44.732;10.550;2023-02-23T06:46:35;101045.38;;;12.34;100.00
32237;BME280;18726;44.732;10.550;2023-02-23T06:49:38;101045.88;;;12.24;100.00
32237;BME280;18726;44.732;10.550;2023-02-23T06:52:42;101055.88;;;12.20;100.00
32237;BME280;18726;44.732;10.550;2023-02-23T06:55:46;101052.72;;;12.17;100.00
32237;BME280;18726;44.732;10.550;2023-02-23T06:58:49;101065.00;;;12.11;100.00
32237;BME280;18726;44.732;10.550;2023-02-23T07:01:53;101061.22;;;11.88;100.00
32237;BME280;18726;44.732;10.550;2023-02-23T07:04:57;101073.28;;;11.63;100.00
32237;BME280;18726;44.732;10.550;2023-02-23T07:08:01;101065.53;;;11.89;100.00
32237;BME280;18726;44.732;10.550;2023-02-23T07:11:11;101070.94;;;12.01;100.00
32237;BME280;18726;44.732;10.550;2023-02-23T07:14:16;101061.53;;;11.99;100.00
32237;BME280;18726;44.732;10.550;2023-02-23T07:17:20;101073.28;;;11.75;100.00
32237;BME280;18726;44.732;10.550;2023-02-23T07:20:24;101067.09;;;12.02;100.00
32237;BME280;18726;44.732;10.550;2023-02-23T07:23:27;101067.47;;;12.16;100.00
32237;BME280;18726;44.732;10.550;2023-02-23T07:26:31;101071.09;;;12.21;100.00
32237;BME280;18726;44.732;10.550;2023-02-23T07:29:38;101071.16;;;12.08;100.00
32237;BME280;18726;44.732;10.550;2023-02-23T07:32:41;101072.00;;;11.84;100.00
32237;BME280;18726;44.732;10.550;2023-02-23T07:35:45;101080.66;;;11.62;100.00
32237;BME280;18726;44.732;10.550;2023-02-23T07:38:49;101078.47;;;11.92;100.00
32237;BME280;18726;44.732;10.550;2023-02-23T07:41:53;101074.84;;;12.16;100.00
32237;BME280;18726;44.732;10.550;2023-02-23T07:44:57;101082.38;;;12.35;100.00
32237;BME280;18726;44.732;10.550;2023-02-23T07:48:01;101089.84;;;12.38;100.00
32237;BME280;18726;44.732;10.550;2023-02-23T07:51:09;101089.97;;;12.41;100.00
32237;BME280;18726;44.732;10.550;2023-02-23T07:54:14;101084.06;;;12.55;100.00
32237;BME280;18726;44.732;10.550;2023-02-23T07:57:19;101084.19;;;12.59;100.00
32237;BME280;18726;44.732;10.550;2023-02-23T08:00:23;101091.50;;;12.70;100.00
32237;BME280;18726;44.732;10.550;2023-02-23T08:03:30;101087.00;;;12.78;100.00
32237;BME280;18726;44.732;10.550;2023-02-23T08:06:34;101093.69;;;12.80;100.00
32237;BME280;18726;44.732;10.550;2023-02-23T08:09:37;101088.94;;;12.93;100.00
32237;BME280;18726;44.732;10.550;2023-02-23T08:12:41;101091.13;;;13.03;100.00
32237;BME280;18726;44.732;10.550;2023-02-23T08:15:45;101092.75;;;13.20;100.00
32237;BME280;18726;44.732;10.550;2023-02-23T08:18:49;101096.94;;;13.33;100.00
32237;BME280;18726;44.732;10.550;2023-02-23T08:21:53;101089.53;;;13.49;100.00
32237;BME280;18726;44.732;10.550;2023-02-23T08:24:58;101093.97;;;13.58;100.00
32237;BME280;18726;44.732;10.550;2023-02-23T08:28:02;101095.44;;;13.51;100.00
32237;BME280;18726;44.732;10.550;2023-02-23T08:31:09;101092.44;;;13.57;100.00
32237;BME280;18726;44.732;10.550;2023-02-23T08:34:13;101105.28;;;13.40;100.00
32237;BME280;18726;44.732;10.550;2023-02-23T08:37:17;101103.16;;;13.49;100.00
32237;BME280;18726;44.732;10.550;2023-02-23T08:40:20;101107.44;;;13.66;100.00
32237;BME280;18726;44.732;10.550;2023-02-23T08:43:24;101100.84;;;13.86;100.00
32237;BME280;18726;44.732;10.550;2023-02-23T08:46:28;101104.91;;;14.12;100.00
32237;BME280;18726;44.732;10.550;2023-02-23T08:49:32;101113.16;;;14.35;100.00
32237;BME280;18726;44.732;10.550;2023-02-23T08:52:37;101116.25;;;14.52;100.00
32237;BME280;18726;44.732;10.550;2023-02-23T08:55:41;101120.63;;;14.38;100.00
32237;BME280;18726;44.732;10.550;2023-02-23T08:58:44;101132.66;;;14.33;100.00
32237;BME280;18726;44.732;10.550;2023-02-23T09:01:48;101127.25;;;14.37;100.00
32237;BME280;18726;44.732;10.550;2023-02-23T09:04:52;101132.09;;;14.43;100.00
32237;BME280;18726;44.732;10.550;2023-02-23T09:07:56;101126.38;;;14.52;100.00
32237;BME280;18726;44.732;10.550;2023-02-23T09:11:00;101127.69;;;14.58;100.00
32237;BME280;18726;44.732;10.550;2023-02-23T09:14:04;101123.94;;;14.66;100.00
32237;BME280;18726;44.732;10.550;2023-02-23T09:17:08;101127.34;;;14.82;100.00
32237;BME280;18726;44.732;10.550;2023-02-23T09:20:14;101128.75;;;14.96;100.00
32237;BME280;18726;44.732;10.550;2023-02-23T09:23:18;101131.28;;;15.08;100.00
32237;BME280;18726;44.732;10.550;2023-02-23T09:26:23;101133.06;;;15.19;100.00
32237;BME280;18726;44.732;10.550;2023-02-23T09:29:28;101136.69;;;15.27;100.00
32237;BME280;18726;44.732;10.550;2023-02-23T09:32:33;101136.69;;;15.27;100.00
32237;BME280;18726;44.732;10.550;2023-02-23T09:35:37;101138.16;;;15.21;100.00
32237;BME280;18726;44.732;10.550;2023-02-23T09:38:42;101146.69;;;15.16;100.00
32237;BME280;18726;44.732;10.550;2023-02-23T09:45:19;101142.13;;;15.01;100.00
32237;BME280;18726;44.732;10.550;2023-02-23T09:48:27;101139.50;;;15.08;100.00
32237;BME280;18726;44.732;10.550;2023-02-23T09:51:37;101138.84;;;15.14;100.00
32237;BME280;18726;44.732;10.550;2023-02-23T09:54:43;101143.75;;;15.05;100.00
32237;BME280;18726;44.732;10.550;2023-02-23T09:57:48;101146.03;;;15.00;100.00
32237;BME280;18726;44.732;10.550;2023-02-23T10:04:22;101138.31;;;14.63;100.00
32237;BME280;18726;44.732;10.550;2023-02-23T10:10:46;101141.50;;;14.65;100.00
32237;BME280;18726;44.732;10.550;2023-02-23T10:26:47;101154.22;;;15.00;100.00
32237;BME280;18726;44.732;10.550;2023-02-23T10:29:54;101146.00;;;15.23;100.00
32237;BME280;18726;44.732;10.550;2023-02-23T10:36:30;101153.16;;;15.80;100.00
32237;BME280;18726;44.732;10.550;2023-02-23T10:39:36;101162.44;;;15.72;100.00
32237;BME280;18726;44.732;10.550;2023-02-23T10:42:39;101163.06;;;15.62;100.00
32237;BME280;18726;44.732;10.550;2023-02-23T10:45:49;101156.84;;;15.65;100.00
32237;BME280;18726;44.732;10.550;2023-02-23T10:48:54;101158.84;;;15.68;100.00
32237;BME280;18726;44.732;10.550;2023-02-23T10:51:59;101156.97;;;15.72;100.00
32237;BME280;18726;44.732;10.550;2023-02-23T10:55:07;101154.00;;;15.84;100.00
32237;BME280;18726;44.732;10.550;2023-02-23T10:58:24;101158.19;;;16.04;100.00
32237;BME280;18726;44.732;10.550;2023-02-23T11:01:40;101157.56;;;16.14;100.00
32237;BME280;18726;44.732;10.550;2023-02-23T11:04:53;101151.56;;;16.39;100.00
32237;BME280;18726;44.732;10.550;2023-02-23T11:11:28;101148.22;;;15.63;100.00
32237;BME280;18726;44.732;10.550;2023-02-23T11:14:32;101151.31;;;15.61;100.00
32237;BME280;18726;44.732;10.550;2023-02-23T11:17:37;101150.84;;;15.82;100.00
32237;BME280;18726;44.732;10.550;2023-02-23T11:20:41;101151.31;;;15.88;100.00
32237;BME280;18726;44.732;10.550;2023-02-23T11:23:49;101141.31;;;15.72;100.00
32237;BME280;18726;44.732;10.550;2023-02-23T11:26:54;101139.31;;;15.20;100.00
32237;BME280;18726;44.732;10.550;2023-02-23T11:30:06;101138.03;;;15.63;100.00
32237;BME280;18726;44.732;10.550;2023-02-23T11:33:15;101131.53;;;16.01;100.00
32237;BME280;18726;44.732;10.550;2023-02-23T11:39:26;101121.41;;;16.05;100.00
32237;BME280;18726;44.732;10.550;2023-02-23T11:42:31;101125.88;;;16.20;100.00
32237;BME280;18726;44.732;10.550;2023-02-23T11:45:44;101127.56;;;15.99;100.00
32237;BME280;18726;44.732;10.550;2023-02-23T11:48:52;101124.28;;;15.86;100.00
32237;BME280;18726;44.732;10.550;2023-02-23T11:51:59;101129.47;;;16.25;100.00
32237;BME280;18726;44.732;10.550;2023-02-23T11:55:15;101121.06;;;16.81;100.00
32237;BME280;18726;44.732;10.550;2023-02-23T11:58:26;101123.25;;;17.02;100.00
32237;BME280;18726;44.732;10.550;2023-02-23T12:01:47;101123.41;;;17.23;100.00
32237;BME280;18726;44.732;10.550;2023-02-23T12:05:09;101115.53;;;17.18;100.00
32237;BME280;18726;44.732;10.550;2023-02-23T12:11:36;101110.47;;;16.79;100.00
32237;BME280;18726;44.732;10.550;2023-02-23T12:14:49;101108.84;;;16.71;100.00
32237;BME280;18726;44.732;10.550;2023-02-23T12:28:11;101099.53;;;16.46;100.00
32237;BME280;18726;44.732;10.550;2023-02-23T12:34:42;101099.50;;;16.79;100.00
32237;BME280;18726;44.732;10.550;2023-02-23T12:38:03;101097.06;;;16.34;100.00
32237;BME280;18726;44.732;10.550;2023-02-23T12:41:13;101091.91;;;16.29;100.00
32237;BME280;18726;44.732;10.550;2023-02-23T12:44:31;101086.69;;;16.53;100.00
32237;BME280;18726;44.732;10.550;2023-02-23T12:50:44;101084.66;;;17.32;100.00
32237;BME280;18726;44.732;10.550;2023-02-23T12:53:52;101077.41;;;17.68;100.00
32237;BME280;18726;44.732;10.550;2023-02-23T13:20:41;101073.13;;;16.31;100.00
32237;BME280;18726;44.732;10.550;2023-02-23T13:24:00;101073.88;;;16.28;100.00
32237;BME280;18726;44.732;10.550;2023-02-23T13:30:23;101073.72;;;16.50;100.00
32237;BME280;18726;44.732;10.550;2023-02-23T13:33:28;101071.81;;;16.54;100.00
32237;BME280;18726;44.732;10.550;2023-02-23T13:36:38;101068.34;;;16.61;100.00
32237;BME280;18726;44.732;10.550;2023-02-23T13:43:44;101074.34;;;16.70;100.00
32237;BME280;18726;44.732;10.550;2023-02-23T13:47:40;101076.22;;;16.63;100.00
32237;BME280;18726;44.732;10.550;2023-02-23T13:54:03;101081.91;;;15.76;100.00
32237;BME280;18726;44.732;10.550;2023-02-23T13:57:13;101075.72;;;15.83;100.00
32237;BME280;18726;44.732;10.550;2023-02-23T14:00:20;101073.56;;;15.99;100.00
32237;BME280;18726;44.732;10.550;2023-02-23T14:03:27;101073.22;;;15.71;100.00
32237;BME280;18726;44.732;10.550;2023-02-23T14:06:33;101065.56;;;15.31;100.00
32237;BME280;18726;44.732;10.550;2023-02-23T14:09:43;101063.22;;;15.29;100.00
32237;BME280;18726;44.732;10.550;2023-02-23T14:13:32;101069.53;;;15.33;100.00
32237;BME280;18726;44.732;10.550;2023-02-23T14:16:36;101066.47;;;15.38;100.00
32237;BME280;18726;44.732;10.550;2023-02-23T14:19:43;101075.03;;;15.37;100.00
32237;BME280;18726;44.732;10.550;2023-02-23T14:23:15;101072.78;;;15.42;100.00
32237;BME280;18726;44.732;10.550;2023-02-23T14:29:39;101065.78;;;15.45;100.00
32237;BME280;18726;44.732;10.550;2023-02-23T14:32:45;101064.88;;;15.37;100.00
32237;BME280;18726;44.732;10.550;2023-02-23T14:35:49;101062.00;;;15.27;100.00
32237;BME280;18726;44.732;10.550;2023-02-23T14:42:05;101062.06;;;15.30;100.00
32237;BME280;18726;44.732;10.550;2023-02-23T14:45:24;101065.13;;;15.25;100.00
32237;BME280;18726;44.732;10.550;2023-02-23T14:48:29;101062.31;;;15.22;100.00
32237;BME280;18726;44.732;10.550;2023-02-23T14:51:54;101061.13;;;15.19;100.00
32237;BME280;18726;44.732;10.550;2023-02-23T14:58:24;101058.75;;;14.68;100.00
32237;BME280;18726;44.732;10.550;2023-02-23T15:01:38;101064.16;;;14.45;100.00
32237;BME280;18726;44.732;10.550;2023-02-23T15:04:42;101056.03;;;14.49;100.00
32237;BME280;18726;44.732;10.550;2023-02-23T15:07:46;101060.72;;;14.48;100.00
32237;BME280;18726;44.732;10.550;2023-02-23T15:11:02;101059.09;;;14.67;100.00
32237;BME280;18726;44.732;10.550;2023-02-23T15:14:08;101060.84;;;14.78;100.00
32237;BME280;18726;44.732;10.550;2023-02-23T15:17:17;101059.38;;;14.84;100.00
32237;BME280;18726;44.732;10.550;2023-02-23T15:20:27;101059.88;;;14.67;100.00
32237;BME280;18726;44.732;10.550;2023-02-23T15:23:35;101054.41;;;14.67;100.00
32237;BME280;18726;44.732;10.550;2023-02-23T15:26:42;101062.63;;;14.67;100.00
32237;BME280;18726;44.732;10.550;2023-02-23T15:29:46;101059.19;;;14.51;100.00
32237;BME280;18726;44.732;10.550;2023-02-23T15:33:11;101060.16;;;14.39;100.00
32237;BME280;18726;44.732;10.550;2023-02-23T15:36:27;101058.94;;;14.17;100.00
32237;BME280;18726;44.732;10.550;2023-02-23T15:39:50;101057.16;;;14.06;100.00
32237;BME280;18726;44.732;10.550;2023-02-23T15:42:57;101060.03;;;13.94;100.00
32237;BME280;18726;44.732;10.550;2023-02-23T15:46:04;101054.94;;;13.92;100.00
32237;BME280;18726;44.732;10.550;2023-02-23T15:49:11;101054.72;;;14.01;100.00
32237;BME280;18726;44.732;10.550;2023-02-23T15:52:20;101065.00;;;14.07;100.00
32237;BME280;18726;44.732;10.550;2023-02-23T15:55:30;101050.19;;;14.08;100.00
32237;BME280;18726;44.732;10.550;2023-02-23T15:58:40;101046.59;;;14.04;100.00
32237;BME280;18726;44.732;10.550;2023-02-23T16:01:46;101043.88;;;14.04;100.00
32237;BME280;18726;44.732;10.550;2023-02-23T16:04:50;101041.41;;;13.99;100.00
32237;BME280;18726;44.732;10.550;2023-02-23T16:08:02;101042.84;;;13.93;100.00
32237;BME280;18726;44.732;10.550;2023-02-23T16:11:12;101039.94;;;13.82;100.00
32237;BME280;18726;44.732;10.550;2023-02-23T16:14:19;101036.34;;;13.78;100.00
32237;BME280;18726;44.732;10.550;2023-02-23T16:23:41;101032.00;;;13.58;100.00
32237;BME280;18726;44.732;10.550;2023-02-23T16:26:58;101028.91;;;13.60;100.00
32237;BME280;18726;44.732;10.550;2023-02-23T16:30:17;101031.94;;;13.55;100.00
32237;BME280;18726;44.732;10.550;2023-02-23T16:33:27;101025.44;;;13.43;100.00
32237;BME280;18726;44.732;10.550;2023-02-23T16:36:36;101022.84;;;13.31;100.00
32237;BME280;18726;44.732;10.550;2023-02-23T16:39:42;101021.91;;;13.24;100.00
32237;BME280;18726;44.732;10.550;2023-02-23T16:42:46;101021.03;;;13.20;100.00
32237;BME280;18726;44.732;10.550;2023-02-23T16:49:31;101035.53;;;13.08;100.00
32237;BME280;18726;44.732;10.550;2023-02-23T16:52:35;101038.25;;;13.08;100.00
32237;BME280;18726;44.732;10.550;2023-02-23T16:55:44;101025.41;;;13.08;100.00
32237;BME280;18726;44.732;10.550;2023-02-23T16:58:54;101025.06;;;13.10;100.00
32237;BME280;18726;44.732;10.550;2023-02-23T17:02:00;101034.81;;;13.11;100.00
32237;BME280;18726;44.732;10.550;2023-02-23T17:05:13;101035.38;;;13.16;100.00
32237;BME280;18726;44.732;10.550;2023-02-23T17:08:17;101034.44;;;13.28;100.00
32237;BME280;18726;44.732;10.550;2023-02-23T17:11:20;101026.31;;;13.47;100.00
32237;BME280;18726;44.732;10.550;2023-02-23T17:14:26;101038.94;;;13.36;100.00
32237;BME280;18726;44.732;10.550;2023-02-23T17:17:30;101041.00;;;13.24;100.00
32237;BME280;18726;44.732;10.550;2023-02-23T17:20:33;101045.03;;;13.14;100.00
32237;BME280;18726;44.732;10.550;2023-02-23T17:23:38;101045.19;;;13.05;100.00
32237;BME280;18726;44.732;10.550;2023-02-23T17:26:51;101040.00;;;13.00;100.00
32237;BME280;18726;44.732;10.550;2023-02-23T17:29:55;101043.81;;;12.96;100.00
32237;BME280;18726;44.732;10.550;2023-02-23T17:32:59;101039.13;;;13.12;100.00
32237;BME280;18726;44.732;10.550;2023-02-23T17:36:06;101036.84;;;13.14;100.00
32237;BME280;18726;44.732;10.550;2023-02-23T17:39:10;101046.44;;;13.08;100.00
32237;BME280;18726;44.732;10.550;2023-02-23T17:42:18;101040.81;;;13.01;100.00
32237;BME280;18726;44.732;10.550;2023-02-23T17:45:22;101051.03;;;12.72;100.00
32237;BME280;18726;44.732;10.550;2023-02-23T17:48:25;101053.47;;;12.46;100.00
32237;BME280;18726;44.732;10.550;2023-02-23T17:51:30;101045.53;;;12.25;100.00
32237;BME280;18726;44.732;10.550;2023-02-23T17:54:33;101058.69;;;12.07;100.00
32237;BME280;18726;44.732;10.550;2023-02-23T17:57:37;101056.19;;;12.02;100.00
32237;BME280;18726;44.732;10.550;2023-02-23T18:00:41;101061.88;;;11.97;100.00
32237;BME280;18726;44.732;10.550;2023-02-23T18:03:45;101069.16;;;11.93;100.00
32237;BME280;18726;44.732;10.550;2023-02-23T18:06:50;101064.84;;;11.92;100.00
32237;BME280;18726;44.732;10.550;2023-02-23T18:09:53;101074.59;;;11.93;100.00
32237;BME280;18726;44.732;10.550;2023-02-23T18:12:57;101075.28;;;11.90;100.00
32237;BME280;18726;44.732;10.550;2023-02-23T18:16:06;101076.41;;;11.89;100.00
32237;BME280;18726;44.732;10.550;2023-02-23T18:19:11;101076.94;;;12.07;100.00